sensor_id;sensor_type;location;lat;lon;timestamp;P1;durP1;ratioP1;P2;durP2;ratioP2
40609;SDS011;26316;55.976;37.140;2023-05-07T00:00:26;3.13;;;2.50;;
40609;SDS011;26316;55.976;37.140;2023-05-07T00:02:53;3.13;;;2.85;;
40609;SDS011;26316;55.976;37.140;2023-05-07T00:05:19;5.18;;;2.50;;
40609;SDS011;26316;55.976;37.140;2023-05-07T00:07:44;2.80;;;2.60;;
40609;SDS011;26316;55.976;37.140;2023-05-07T00:10:10;7.57;;;2.85;;
40609;SDS011;26316;55.976;37.140;2023-05-07T00:12:37;3.38;;;2.90;;
40609;SDS011;26316;55.976;37.140;2023-05-07T00:15:04;3.35;;;2.60;;
40609;SDS011;26316;55.976;37.140;2023-05-07T00:17:33;2.85;;;2.60;;
40609;SDS011;26316;55.976;37.140;2023-05-07T00:19:59;3.17;;;2.60;;
40609;SDS011;26316;55.976;37.140;2023-05-07T00:22:25;3.40;;;3.10;;
40609;SDS011;26316;55.976;37.140;2023-05-07T00:24:51;3.15;;;2.63;;
40609;SDS011;26316;55.976;37.140;2023-05-07T00:27:17;4.80;;;3.20;;
40609;SDS011;26316;55.976;37.140;2023-05-07T00:29:42;3.45;;;2.70;;
40609;SDS011;26316;55.976;37.140;2023-05-07T00:32:08;3.75;;;2.75;;
40609;SDS011;26316;55.976;37.140;2023-05-07T00:34:34;3.72;;;2.83;;
40609;SDS011;26316;55.976;37.140;2023-05-07T00:37:00;3.08;;;2.67;;
40609;SDS011;26316;55.976;37.140;2023-05-07T00:39:26;3.00;;;2.72;;
40609;SDS011;26316;55.976;37.140;2023-05-07T00:41:52;2.60;;;2.35;;
40609;SDS011;26316;55.976;37.140;2023-05-07T00:44:18;6.65;;;2.88;;
40609;SDS011;26316;55.976;37.140;2023-05-07T00:46:44;2.65;;;2.45;;
40609;SDS011;26316;55.976;37.140;2023-05-07T00:49:15;4.97;;;2.83;;
40609;SDS011;26316;55.976;37.140;2023-05-07T00:51:41;4.22;;;2.80;;
40609;SDS011;26316;55.976;37.140;2023-05-07T00:54:07;3.00;;;2.70;;
40609;SDS011;26316;55.976;37.140;2023-05-07T00:56:33;7.07;;;3.17;;
40609;SDS011;26316;55.976;37.140;2023-05-07T00:59:00;3.15;;;2.78;;
40609;SDS011;26316;55.976;37.140;2023-05-07T01:01:27;3.97;;;3.00;;
40609;SDS011;26316;55.976;37.140;2023-05-07T01:03:53;3.22;;;2.92;;
40609;SDS011;26316;55.976;37.140;2023-05-07T01:06:20;3.92;;;2.80;;
40609;SDS011;26316;55.976;37.140;2023-05-07T01:08:46;3.00;;;2.75;;
40609;SDS011;26316;55.976;37.140;2023-05-07T01:11:13;3.13;;;2.83;;
40609;SDS011;26316;55.976;37.140;2023-05-07T01:13:39;3.85;;;2.60;;
40609;SDS011;26316;55.976;37.140;2023-05-07T01:16:05;3.47;;;2.90;;
40609;SDS011;26316;55.976;37.140;2023-05-07T01:18:32;2.65;;;2.45;;
40609;SDS011;26316;55.976;37.140;2023-05-07T01:20:58;3.60;;;2.47;;
40609;SDS011;26316;55.976;37.140;2023-05-07T01:23:25;3.17;;;2.60;;
40609;SDS011;26316;55.976;37.140;2023-05-07T01:25:53;2.75;;;2.40;;
40609;SDS011;26316;55.976;37.140;2023-05-07T01:28:21;4.18;;;2.97;;
40609;SDS011;26316;55.976;37.140;2023-05-07T01:30:49;2.53;;;2.30;;
40609;SDS011;26316;55.976;37.140;2023-05-07T01:33:19;3.00;;;2.58;;
40609;SDS011;26316;55.976;37.140;2023-05-07T01:35:51;3.17;;;2.53;;
40609;SDS011;26316;55.976;37.140;2023-05-07T01:38:18;3.00;;;2.80;;
40609;SDS011;26316;55.976;37.140;2023-05-07T01:40:44;2.90;;;2.70;;
40609;SDS011;26316;55.976;37.140;2023-05-07T01:43:11;6.60;;;4.93;;
40609;SDS011;26316;55.976;37.140;2023-05-07T01:45:38;7.80;;;4.57;;
40609;SDS011;26316;55.976;37.140;2023-05-07T01:48:04;5.13;;;4.00;;
40609;SDS011;26316;55.976;37.140;2023-05-07T01:50:30;4.75;;;4.07;;
40609;SDS011;26316;55.976;37.140;2023-05-07T01:52:56;4.82;;;4.10;;
40609;SDS011;26316;55.976;37.140;2023-05-07T01:55:22;3.78;;;3.47;;
40609;SDS011;26316;55.976;37.140;2023-05-07T01:57:49;4.18;;;3.40;;
40609;SDS011;26316;55.976;37.140;2023-05-07T02:00:15;5.78;;;3.13;;
40609;SDS011;26316;55.976;37.140;2023-05-07T02:02:42;3.95;;;3.10;;
40609;SDS011;26316;55.976;37.140;2023-05-07T02:05:17;3.47;;;3.05;;
40609;SDS011;26316;55.976;37.140;2023-05-07T02:07:47;3.00;;;2.70;;
40609;SDS011;26316;55.976;37.140;2023-05-07T02:10:13;3.58;;;3.00;;
40609;SDS011;26316;55.976;37.140;2023-05-07T02:12:38;4.75;;;2.85;;
40609;SDS011;26316;55.976;37.140;2023-05-07T02:15:04;2.75;;;2.55;;
40609;SDS011;26316;55.976;37.140;2023-05-07T02:17:32;3.75;;;2.80;;
40609;SDS011;26316;55.976;37.140;2023-05-07T02:19:59;6.72;;;3.20;;
40609;SDS011;26316;55.976;37.140;2023-05-07T02:22:45;7.60;;;2.80;;
40609;SDS011;26316;55.976;37.140;2023-05-07T02:25:10;2.80;;;2.60;;
40609;SDS011;26316;55.976;37.140;2023-05-07T02:27:36;3.17;;;2.90;;
40609;SDS011;26316;55.976;37.140;2023-05-07T02:30:02;4.15;;;2.90;;
40609;SDS011;26316;55.976;37.140;2023-05-07T02:32:30;3.22;;;2.67;;
40609;SDS011;26316;55.976;37.140;2023-05-07T02:34:56;3.33;;;3.03;;
40609;SDS011;26316;55.976;37.140;2023-05-07T02:37:21;4.88;;;3.53;;
40609;SDS011;26316;55.976;37.140;2023-05-07T02:39:47;3.25;;;2.90;;
40609;SDS011;26316;55.976;37.140;2023-05-07T02:42:13;3.40;;;3.03;;
40609;SDS011;26316;55.976;37.140;2023-05-07T02:44:38;3.42;;;3.10;;
40609;SDS011;26316;55.976;37.140;2023-05-07T02:47:04;3.22;;;2.70;;
40609;SDS011;26316;55.976;37.140;2023-05-07T02:49:34;2.78;;;2.60;;
40609;SDS011;26316;55.976;37.140;2023-05-07T02:51:59;2.63;;;2.42;;
40609;SDS011;26316;55.976;37.140;2023-05-07T02:54:25;5.05;;;3.35;;
40609;SDS011;26316;55.976;37.140;2023-05-07T02:56:51;3.08;;;2.83;;
40609;SDS011;26316;55.976;37.140;2023-05-07T02:59:16;3.17;;;2.90;;
40609;SDS011;26316;55.976;37.140;2023-05-07T03:01:42;3.08;;;2.80;;
40609;SDS011;26316;55.976;37.140;2023-05-07T03:04:10;3.55;;;3.08;;
40609;SDS011;26316;55.976;37.140;2023-05-07T03:06:36;3.20;;;2.75;;
40609;SDS011;26316;55.976;37.140;2023-05-07T03:09:02;3.63;;;2.83;;
40609;SDS011;26316;55.976;37.140;2023-05-07T03:11:28;4.82;;;3.13;;
40609;SDS011;26316;55.976;37.140;2023-05-07T03:13:54;2.70;;;2.30;;
40609;SDS011;26316;55.976;37.140;2023-05-07T03:16:21;4.47;;;2.95;;
40609;SDS011;26316;55.976;37.140;2023-05-07T03:18:46;2.97;;;2.67;;
40609;SDS011;26316;55.976;37.140;2023-05-07T03:21:12;4.45;;;3.10;;
40609;SDS011;26316;55.976;37.140;2023-05-07T03:23:38;3.28;;;2.97;;
40609;SDS011;26316;55.976;37.140;2023-05-07T03:26:04;3.50;;;3.20;;
40609;SDS011;26316;55.976;37.140;2023-05-07T03:28:30;3.72;;;3.30;;
40609;SDS011;26316;55.976;37.140;2023-05-07T03:31:00;4.03;;;3.72;;
40609;SDS011;26316;55.976;37.140;2023-05-07T03:33:26;5.80;;;3.97;;
40609;SDS011;26316;55.976;37.140;2023-05-07T03:35:53;4.55;;;4.15;;
40609;SDS011;26316;55.976;37.140;2023-05-07T03:38:22;5.85;;;3.90;;
40609;SDS011;26316;55.976;37.140;2023-05-07T03:40:48;4.50;;;4.10;;
40609;SDS011;26316;55.976;37.140;2023-05-07T03:43:14;5.13;;;4.50;;
40609;SDS011;26316;55.976;37.140;2023-05-07T03:45:45;5.32;;;4.78;;
40609;SDS011;26316;55.976;37.140;2023-05-07T03:48:18;5.38;;;4.88;;
40609;SDS011;26316;55.976;37.140;2023-05-07T03:50:44;5.32;;;4.68;;
40609;SDS011;26316;55.976;37.140;2023-05-07T03:53:10;6.63;;;4.75;;
40609;SDS011;26316;55.976;37.140;2023-05-07T03:55:39;5.50;;;4.13;;
40609;SDS011;26316;55.976;37.140;2023-05-07T03:58:05;5.18;;;4.65;;
40609;SDS011;26316;55.976;37.140;2023-05-07T04:00:31;4.93;;;4.50;;
40609;SDS011;26316;55.976;37.140;2023-05-07T04:02:59;4.68;;;4.28;;
40609;SDS011;26316;55.976;37.140;2023-05-07T04:05:28;4.37;;;3.97;;
40609;SDS011;26316;55.976;37.140;2023-05-07T04:10:30;4.82;;;3.65;;
40609;SDS011;26316;55.976;37.140;2023-05-07T04:12:57;3.63;;;3.33;;
40609;SDS011;26316;55.976;37.140;2023-05-07T04:15:24;5.20;;;3.15;;
40609;SDS011;26316;55.976;37.140;2023-05-07T04:17:50;3.63;;;2.90;;
40609;SDS011;26316;55.976;37.140;2023-05-07T04:20:18;3.03;;;2.83;;
40609;SDS011;26316;55.976;37.140;2023-05-07T04:22:50;3.50;;;3.20;;
40609;SDS011;26316;55.976;37.140;2023-05-07T04:25:15;2.97;;;2.72;;
40609;SDS011;26316;55.976;37.140;2023-05-07T04:27:42;3.20;;;2.90;;
40609;SDS011;26316;55.976;37.140;2023-05-07T04:30:08;3.05;;;2.75;;
40609;SDS011;26316;55.976;37.140;2023-05-07T04:32:37;3.50;;;2.78;;
40609;SDS011;26316;55.976;37.140;2023-05-07T04:35:05;4.03;;;2.97;;
40609;SDS011;26316;55.976;37.140;2023-05-07T04:37:34;3.42;;;2.80;;
40609;SDS011;26316;55.976;37.140;2023-05-07T04:40:00;6.13;;;3.20;;
40609;SDS011;26316;55.976;37.140;2023-05-07T04:42:30;2.80;;;2.60;;
40609;SDS011;26316;55.976;37.140;2023-05-07T04:44:56;3.67;;;2.78;;
40609;SDS011;26316;55.976;37.140;2023-05-07T04:47:23;3.13;;;2.50;;
40609;SDS011;26316;55.976;37.140;2023-05-07T04:49:50;4.03;;;2.90;;
40609;SDS011;26316;55.976;37.140;2023-05-07T04:52:15;5.25;;;2.60;;
40609;SDS011;26316;55.976;37.140;2023-05-07T04:54:42;4.15;;;2.78;;
40609;SDS011;26316;55.976;37.140;2023-05-07T04:57:07;3.17;;;2.90;;
40609;SDS011;26316;55.976;37.140;2023-05-07T04:59:33;5.07;;;2.78;;
40609;SDS011;26316;55.976;37.140;2023-05-07T05:01:59;7.35;;;3.00;;
40609;SDS011;26316;55.976;37.140;2023-05-07T05:04:25;5.03;;;2.75;;
40609;SDS011;26316;55.976;37.140;2023-05-07T05:06:51;2.65;;;2.45;;
40609;SDS011;26316;55.976;37.140;2023-05-07T05:09:17;4.40;;;2.38;;
40609;SDS011;26316;55.976;37.140;2023-05-07T05:11:43;3.83;;;2.70;;
40609;SDS011;26316;55.976;37.140;2023-05-07T05:14:09;2.90;;;2.38;;
40609;SDS011;26316;55.976;37.140;2023-05-07T05:16:35;3.67;;;2.70;;
40609;SDS011;26316;55.976;37.140;2023-05-07T05:19:01;3.00;;;2.53;;
40609;SDS011;26316;55.976;37.140;2023-05-07T05:21:29;2.22;;;2.00;;
40609;SDS011;26316;55.976;37.140;2023-05-07T05:24:01;4.40;;;2.50;;
40609;SDS011;26316;55.976;37.140;2023-05-07T05:26:27;3.67;;;2.45;;
40609;SDS011;26316;55.976;37.140;2023-05-07T05:28:53;3.25;;;2.47;;
40609;SDS011;26316;55.976;37.140;2023-05-07T05:31:21;4.97;;;2.53;;
40609;SDS011;26316;55.976;37.140;2023-05-07T05:33:48;3.25;;;2.17;;
40609;SDS011;26316;55.976;37.140;2023-05-07T05:36:14;3.50;;;2.40;;
40609;SDS011;26316;55.976;37.140;2023-05-07T05:38:41;3.00;;;2.15;;
40609;SDS011;26316;55.976;37.140;2023-05-07T05:41:08;3.67;;;2.22;;
40609;SDS011;26316;55.976;37.140;2023-05-07T05:43:34;4.45;;;2.20;;
40609;SDS011;26316;55.976;37.140;2023-05-07T05:46:00;6.63;;;2.58;;
40609;SDS011;26316;55.976;37.140;2023-05-07T05:48:26;2.30;;;2.10;;
40609;SDS011;26316;55.976;37.140;2023-05-07T05:50:52;5.10;;;2.30;;
40609;SDS011;26316;55.976;37.140;2023-05-07T05:53:18;3.20;;;2.38;;
40609;SDS011;26316;55.976;37.140;2023-05-07T05:55:43;3.45;;;2.45;;
40609;SDS011;26316;55.976;37.140;2023-05-07T05:58:10;3.58;;;2.60;;
40609;SDS011;26316;55.976;37.140;2023-05-07T06:00:40;3.65;;;2.50;;
40609;SDS011;26316;55.976;37.140;2023-05-07T06:03:06;3.83;;;2.17;;
40609;SDS011;26316;55.976;37.140;2023-05-07T06:05:33;3.60;;;2.10;;
40609;SDS011;26316;55.976;37.140;2023-05-07T06:07:59;4.80;;;2.03;;
40609;SDS011;26316;55.976;37.140;2023-05-07T06:10:29;4.07;;;2.10;;
40609;SDS011;26316;55.976;37.140;2023-05-07T06:12:55;3.90;;;1.95;;
40609;SDS011;26316;55.976;37.140;2023-05-07T06:15:21;1.90;;;1.80;;
40609;SDS011;26316;55.976;37.140;2023-05-07T06:17:47;2.92;;;2.08;;
40609;SDS011;26316;55.976;37.140;2023-05-07T06:20:14;1.50;;;1.40;;
40609;SDS011;26316;55.976;37.140;2023-05-07T06:22:40;2.47;;;1.73;;
40609;SDS011;26316;55.976;37.140;2023-05-07T06:25:07;5.88;;;1.52;;
40609;SDS011;26316;55.976;37.140;2023-05-07T06:27:33;2.78;;;1.67;;
40609;SDS011;26316;55.976;37.140;2023-05-07T06:29:58;2.50;;;1.40;;
40609;SDS011;26316;55.976;37.140;2023-05-07T06:32:24;1.60;;;1.50;;
40609;SDS011;26316;55.976;37.140;2023-05-07T06:34:51;2.47;;;1.50;;
40609;SDS011;26316;55.976;37.140;2023-05-07T06:37:16;1.60;;;1.50;;
40609;SDS011;26316;55.976;37.140;2023-05-07T06:39:54;6.20;;;1.70;;
40609;SDS011;26316;55.976;37.140;2023-05-07T06:42:21;1.50;;;1.40;;
40609;SDS011;26316;55.976;37.140;2023-05-07T06:44:48;1.80;;;1.70;;
40609;SDS011;26316;55.976;37.140;2023-05-07T06:47:16;2.20;;;1.60;;
40609;SDS011;26316;55.976;37.140;2023-05-07T06:49:44;1.90;;;1.40;;
40609;SDS011;26316;55.976;37.140;2023-05-07T06:52:13;5.00;;;1.83;;
40609;SDS011;26316;55.976;37.140;2023-05-07T06:54:39;2.03;;;1.63;;
40609;SDS011;26316;55.976;37.140;2023-05-07T06:57:05;4.65;;;1.65;;
40609;SDS011;26316;55.976;37.140;2023-05-07T06:59:31;2.80;;;1.52;;
40609;SDS011;26316;55.976;37.140;2023-05-07T07:01:58;2.28;;;1.80;;
40609;SDS011;26316;55.976;37.140;2023-05-07T07:04:24;1.60;;;1.50;;
40609;SDS011;26316;55.976;37.140;2023-05-07T07:06:58;2.17;;;1.77;;
40609;SDS011;26316;55.976;37.140;2023-05-07T07:09:24;1.55;;;1.40;;
40609;SDS011;26316;55.976;37.140;2023-05-07T07:11:51;2.45;;;1.30;;
40609;SDS011;26316;55.976;37.140;2023-05-07T07:14:17;1.60;;;1.50;;
40609;SDS011;26316;55.976;37.140;2023-05-07T07:19:15;1.88;;;1.35;;
40609;SDS011;26316;55.976;37.140;2023-05-07T07:21:41;7.78;;;1.25;;
40609;SDS011;26316;55.976;37.140;2023-05-07T07:24:09;1.95;;;1.50;;
40609;SDS011;26316;55.976;37.140;2023-05-07T07:26:35;1.63;;;1.52;;
40609;SDS011;26316;55.976;37.140;2023-05-07T07:29:01;2.90;;;1.40;;
40609;SDS011;26316;55.976;37.140;2023-05-07T07:31:26;4.18;;;1.40;;
40609;SDS011;26316;55.976;37.140;2023-05-07T07:33:52;4.97;;;1.50;;
40609;SDS011;26316;55.976;37.140;2023-05-07T07:36:18;1.42;;;1.15;;
40609;SDS011;26316;55.976;37.140;2023-05-07T07:38:44;2.55;;;1.50;;
40609;SDS011;26316;55.976;37.140;2023-05-07T07:41:09;4.18;;;1.75;;
40609;SDS011;26316;55.976;37.140;2023-05-07T07:43:36;4.05;;;1.40;;
40609;SDS011;26316;55.976;37.140;2023-05-07T07:46:02;4.28;;;1.40;;
40609;SDS011;26316;55.976;37.140;2023-05-07T07:48:28;7.90;;;1.65;;
40609;SDS011;26316;55.976;37.140;2023-05-07T07:50:54;5.53;;;1.42;;
40609;SDS011;26316;55.976;37.140;2023-05-07T07:53:21;3.13;;;1.50;;
40609;SDS011;26316;55.976;37.140;2023-05-07T07:55:47;4.15;;;1.63;;
40609;SDS011;26316;55.976;37.140;2023-05-07T07:58:16;4.10;;;1.48;;
40609;SDS011;26316;55.976;37.140;2023-05-07T08:00:41;8.27;;;1.30;;
40609;SDS011;26316;55.976;37.140;2023-05-07T08:03:10;2.20;;;1.10;;
40609;SDS011;26316;55.976;37.140;2023-05-07T08:05:39;1.80;;;0.90;;
40609;SDS011;26316;55.976;37.140;2023-05-07T08:08:06;4.20;;;1.17;;
40609;SDS011;26316;55.976;37.140;2023-05-07T08:10:33;3.17;;;1.08;;
40609;SDS011;26316;55.976;37.140;2023-05-07T08:13:04;1.73;;;0.90;;
40609;SDS011;26316;55.976;37.140;2023-05-07T08:15:30;3.45;;;1.55;;
40609;SDS011;26316;55.976;37.140;2023-05-07T08:17:57;0.85;;;0.85;;
40609;SDS011;26316;55.976;37.140;2023-05-07T08:20:26;1.70;;;0.93;;
40609;SDS011;26316;55.976;37.140;2023-05-07T08:22:52;1.00;;;0.90;;
40609;SDS011;26316;55.976;37.140;2023-05-07T08:25:18;2.10;;;1.10;;
40609;SDS011;26316;55.976;37.140;2023-05-07T08:27:44;3.05;;;1.38;;
40609;SDS011;26316;55.976;37.140;2023-05-07T08:30:10;1.80;;;1.00;;
40609;SDS011;26316;55.976;37.140;2023-05-07T08:32:37;2.67;;;1.10;;
40609;SDS011;26316;55.976;37.140;2023-05-07T08:35:02;1.00;;;0.88;;
40609;SDS011;26316;55.976;37.140;2023-05-07T08:37:29;3.05;;;1.00;;
40609;SDS011;26316;55.976;37.140;2023-05-07T08:39:55;0.90;;;0.90;;
40609;SDS011;26316;55.976;37.140;2023-05-07T08:42:24;1.20;;;1.10;;
40609;SDS011;26316;55.976;37.140;2023-05-07T08:44:52;3.35;;;1.08;;
40609;SDS011;26316;55.976;37.140;2023-05-07T08:47:22;2.73;;;0.87;;
40609;SDS011;26316;55.976;37.140;2023-05-07T08:49:50;3.25;;;0.95;;
40609;SDS011;26316;55.976;37.140;2023-05-07T08:52:16;2.17;;;1.33;;
40609;SDS011;26316;55.976;37.140;2023-05-07T08:54:42;1.92;;;1.13;;
40609;SDS011;26316;55.976;37.140;2023-05-07T08:57:09;2.25;;;1.30;;
40609;SDS011;26316;55.976;37.140;2023-05-07T08:59:35;1.25;;;1.15;;
40609;SDS011;26316;55.976;37.140;2023-05-07T09:02:02;5.40;;;1.25;;
40609;SDS011;26316;55.976;37.140;2023-05-07T09:04:28;2.17;;;1.35;;
40609;SDS011;26316;55.976;37.140;2023-05-07T09:06:54;2.92;;;1.30;;
40609;SDS011;26316;55.976;37.140;2023-05-07T09:09:22;1.88;;;1.27;;
40609;SDS011;26316;55.976;37.140;2023-05-07T09:11:56;1.88;;;1.40;;
40609;SDS011;26316;55.976;37.140;2023-05-07T09:14:25;1.58;;;1.42;;
40609;SDS011;26316;55.976;37.140;2023-05-07T09:16:54;1.80;;;1.35;;
40609;SDS011;26316;55.976;37.140;2023-05-07T09:19:24;1.15;;;1.10;;
40609;SDS011;26316;55.976;37.140;2023-05-07T09:21:59;1.00;;;1.00;;
40609;SDS011;26316;55.976;37.140;2023-05-07T09:24:26;5.05;;;1.80;;
40609;SDS011;26316;55.976;37.140;2023-05-07T09:26:54;9.13;;;1.30;;
40609;SDS011;26316;55.976;37.140;2023-05-07T09:29:20;1.40;;;1.30;;
40609;SDS011;26316;55.976;37.140;2023-05-07T09:31:47;1.30;;;1.05;;
40609;SDS011;26316;55.976;37.140;2023-05-07T09:34:15;1.50;;;1.33;;
40609;SDS011;26316;55.976;37.140;2023-05-07T09:36:44;2.15;;;1.20;;
40609;SDS011;26316;55.976;37.140;2023-05-07T09:39:10;3.60;;;1.10;;
40609;SDS011;26316;55.976;37.140;2023-05-07T09:41:46;1.85;;;1.27;;
40609;SDS011;26316;55.976;37.140;2023-05-07T09:44:18;1.00;;;1.00;;
40609;SDS011;26316;55.976;37.140;2023-05-07T09:46:51;3.10;;;1.07;;
40609;SDS011;26316;55.976;37.140;2023-05-07T09:49:23;1.67;;;1.42;;
40609;SDS011;26316;55.976;37.140;2023-05-07T09:51:56;2.05;;;1.20;;
40609;SDS011;26316;55.976;37.140;2023-05-07T09:54:25;4.05;;;1.55;;
40609;SDS011;26316;55.976;37.140;2023-05-07T09:56:55;2.83;;;1.40;;
40609;SDS011;26316;55.976;37.140;2023-05-07T09:59:23;4.28;;;1.30;;
40609;SDS011;26316;55.976;37.140;2023-05-07T10:01:50;3.88;;;1.73;;
40609;SDS011;26316;55.976;37.140;2023-05-07T10:04:16;4.70;;;1.10;;
40609;SDS011;26316;55.976;37.140;2023-05-07T10:06:43;4.95;;;1.30;;
40609;SDS011;26316;55.976;37.140;2023-05-07T10:09:10;3.53;;;1.27;;
40609;SDS011;26316;55.976;37.140;2023-05-07T10:11:37;4.05;;;1.60;;
40609;SDS011;26316;55.976;37.140;2023-05-07T10:14:03;6.63;;;1.65;;
40609;SDS011;26316;55.976;37.140;2023-05-07T10:16:32;3.35;;;1.00;;
40609;SDS011;26316;55.976;37.140;2023-05-07T10:19:02;4.88;;;1.33;;
40609;SDS011;26316;55.976;37.140;2023-05-07T10:21:30;4.80;;;1.40;;
40609;SDS011;26316;55.976;37.140;2023-05-07T10:24:04;3.97;;;1.17;;
40609;SDS011;26316;55.976;37.140;2023-05-07T10:26:33;3.83;;;1.65;;
40609;SDS011;26316;55.976;37.140;2023-05-07T10:29:02;3.45;;;1.98;;
40609;SDS011;26316;55.976;37.140;2023-05-07T10:31:41;7.25;;;1.85;;
40609;SDS011;26316;55.976;37.140;2023-05-07T10:34:17;2.22;;;1.40;;
40609;SDS011;26316;55.976;37.140;2023-05-07T10:36:47;2.75;;;1.40;;
40609;SDS011;26316;55.976;37.140;2023-05-07T10:39:14;8.82;;;1.70;;
40609;SDS011;26316;55.976;37.140;2023-05-07T10:41:40;3.08;;;1.10;;
40609;SDS011;26316;55.976;37.140;2023-05-07T10:44:06;1.90;;;1.25;;
40609;SDS011;26316;55.976;37.140;2023-05-07T10:46:34;3.40;;;2.03;;
40609;SDS011;26316;55.976;37.140;2023-05-07T10:49:17;2.15;;;1.52;;
40609;SDS011;26316;55.976;37.140;2023-05-07T10:52:12;2.38;;;1.58;;
40609;SDS011;26316;55.976;37.140;2023-05-07T10:57:45;4.95;;;1.30;;
40609;SDS011;26316;55.976;37.140;2023-05-07T11:05:31;6.03;;;1.45;;
40609;SDS011;26316;55.976;37.140;2023-05-07T11:08:33;2.72;;;1.33;;
40609;SDS011;26316;55.976;37.140;2023-05-07T11:11:47;1.90;;;1.08;;
40609;SDS011;26316;55.976;37.140;2023-05-07T11:17:09;1.00;;;1.00;;
40609;SDS011;26316;55.976;37.140;2023-05-07T11:19:53;1.45;;;1.23;;
40609;SDS011;26316;55.976;37.140;2023-05-07T11:22:38;2.33;;;1.50;;
40609;SDS011;26316;55.976;37.140;2023-05-07T11:25:19;4.25;;;1.60;;
40609;SDS011;26316;55.976;37.140;2023-05-07T11:27:50;2.45;;;1.00;;
40609;SDS011;26316;55.976;37.140;2023-05-07T11:30:18;4.18;;;1.20;;
40609;SDS011;26316;55.976;37.140;2023-05-07T11:32:46;5.15;;;1.00;;
40609;SDS011;26316;55.976;37.140;2023-05-07T11:35:13;1.02;;;0.80;;
40609;SDS011;26316;55.976;37.140;2023-05-07T11:37:41;2.60;;;1.20;;
40609;SDS011;26316;55.976;37.140;2023-05-07T11:40:08;7.40;;;1.65;;
40609;SDS011;26316;55.976;37.140;2023-05-07T11:42:36;4.35;;;1.63;;
40609;SDS011;26316;55.976;37.140;2023-05-07T11:45:03;7.00;;;2.00;;
40609;SDS011;26316;55.976;37.140;2023-05-07T11:47:32;2.85;;;1.50;;
40609;SDS011;26316;55.976;37.140;2023-05-07T11:50:03;1.30;;;1.17;;
40609;SDS011;26316;55.976;37.140;2023-05-07T11:52:30;1.92;;;1.17;;
40609;SDS011;26316;55.976;37.140;2023-05-07T11:54:57;3.75;;;1.20;;
40609;SDS011;26316;55.976;37.140;2023-05-07T11:57:25;1.58;;;1.20;;
40609;SDS011;26316;55.976;37.140;2023-05-07T12:02:21;2.75;;;1.38;;
40609;SDS011;26316;55.976;37.140;2023-05-07T12:04:46;1.55;;;1.45;;
40609;SDS011;26316;55.976;37.140;2023-05-07T12:07:12;3.75;;;1.00;;
40609;SDS011;26316;55.976;37.140;2023-05-07T12:09:42;1.20;;;1.10;;
40609;SDS011;26316;55.976;37.140;2023-05-07T12:12:08;2.42;;;1.35;;
40609;SDS011;26316;55.976;37.140;2023-05-07T12:14:40;0.93;;;0.93;;
40609;SDS011;26316;55.976;37.140;2023-05-07T12:17:10;1.38;;;1.27;;
40609;SDS011;26316;55.976;37.140;2023-05-07T12:19:36;2.45;;;1.10;;
40609;SDS011;26316;55.976;37.140;2023-05-07T12:22:03;2.15;;;1.23;;
40609;SDS011;26316;55.976;37.140;2023-05-07T12:27:30;4.70;;;1.10;;
40609;SDS011;26316;55.976;37.140;2023-05-07T12:29:57;1.40;;;1.20;;
40609;SDS011;26316;55.976;37.140;2023-05-07T12:32:23;1.30;;;1.10;;
40609;SDS011;26316;55.976;37.140;2023-05-07T12:34:49;1.55;;;1.30;;
40609;SDS011;26316;55.976;37.140;2023-05-07T12:37:16;2.65;;;1.00;;
40609;SDS011;26316;55.976;37.140;2023-05-07T12:39:48;4.32;;;1.20;;
40609;SDS011;26316;55.976;37.140;2023-05-07T12:42:23;1.75;;;1.23;;
40609;SDS011;26316;55.976;37.140;2023-05-07T12:44:51;2.40;;;1.08;;
40609;SDS011;26316;55.976;37.140;2023-05-07T12:47:17;1.15;;;1.10;;
40609;SDS011;26316;55.976;37.140;2023-05-07T12:49:43;4.05;;;1.40;;
40609;SDS011;26316;55.976;37.140;2023-05-07T12:52:11;0.93;;;0.93;;
40609;SDS011;26316;55.976;37.140;2023-05-07T12:54:37;1.20;;;1.10;;
40609;SDS011;26316;55.976;37.140;2023-05-07T12:57:07;1.95;;;1.30;;
40609;SDS011;26316;55.976;37.140;2023-05-07T12:59:38;1.60;;;1.10;;
40609;SDS011;26316;55.976;37.140;2023-05-07T13:02:05;1.92;;;1.10;;
40609;SDS011;26316;55.976;37.140;2023-05-07T13:04:32;1.30;;;1.17;;
40609;SDS011;26316;55.976;37.140;2023-05-07T13:06:58;1.38;;;0.90;;
40609;SDS011;26316;55.976;37.140;2023-05-07T13:09:25;1.45;;;0.90;;
40609;SDS011;26316;55.976;37.140;2023-05-07T13:11:50;1.30;;;1.20;;
40609;SDS011;26316;55.976;37.140;2023-05-07T13:14:16;1.20;;;1.10;;
40609;SDS011;26316;55.976;37.140;2023-05-07T13:16:42;2.30;;;1.20;;
40609;SDS011;26316;55.976;37.140;2023-05-07T13:19:08;2.17;;;0.90;;
40609;SDS011;26316;55.976;37.140;2023-05-07T13:21:33;1.45;;;1.00;;
40609;SDS011;26316;55.976;37.140;2023-05-07T13:23:59;2.80;;;1.33;;
40609;SDS011;26316;55.976;37.140;2023-05-07T13:26:25;5.68;;;1.15;;
40609;SDS011;26316;55.976;37.140;2023-05-07T13:28:52;8.98;;;1.23;;
40609;SDS011;26316;55.976;37.140;2023-05-07T13:31:18;5.20;;;1.40;;
40609;SDS011;26316;55.976;37.140;2023-05-07T13:33:46;1.63;;;0.88;;
40609;SDS011;26316;55.976;37.140;2023-05-07T13:36:12;4.65;;;1.75;;
40609;SDS011;26316;55.976;37.140;2023-05-07T13:38:41;2.13;;;1.10;;
40609;SDS011;26316;55.976;37.140;2023-05-07T13:41:07;2.92;;;1.40;;
40609;SDS011;26316;55.976;37.140;2023-05-07T13:43:32;1.33;;;1.23;;
40609;SDS011;26316;55.976;37.140;2023-05-07T13:45:59;2.63;;;1.08;;
40609;SDS011;26316;55.976;37.140;2023-05-07T13:48:26;4.15;;;1.50;;
40609;SDS011;26316;55.976;37.140;2023-05-07T13:50:51;7.68;;;1.73;;
40609;SDS011;26316;55.976;37.140;2023-05-07T13:53:17;2.55;;;1.48;;
40609;SDS011;26316;55.976;37.140;2023-05-07T13:55:43;4.30;;;1.10;;
40609;SDS011;26316;55.976;37.140;2023-05-07T13:58:10;5.78;;;1.45;;
40609;SDS011;26316;55.976;37.140;2023-05-07T14:00:35;1.60;;;1.20;;
40609;SDS011;26316;55.976;37.140;2023-05-07T14:03:01;2.85;;;1.27;;
40609;SDS011;26316;55.976;37.140;2023-05-07T14:05:27;4.00;;;1.52;;
40609;SDS011;26316;55.976;37.140;2023-05-07T14:07:54;1.35;;;1.25;;
40609;SDS011;26316;55.976;37.140;2023-05-07T14:10:20;4.65;;;1.23;;
40609;SDS011;26316;55.976;37.140;2023-05-07T14:12:46;2.05;;;1.38;;
40609;SDS011;26316;55.976;37.140;2023-05-07T14:15:13;5.90;;;1.30;;
40609;SDS011;26316;55.976;37.140;2023-05-07T14:17:40;1.83;;;1.20;;
40609;SDS011;26316;55.976;37.140;2023-05-07T14:20:05;1.20;;;1.00;;
40609;SDS011;26316;55.976;37.140;2023-05-07T14:22:32;2.30;;;0.80;;
40609;SDS011;26316;55.976;37.140;2023-05-07T14:24:58;1.63;;;1.30;;
40609;SDS011;26316;55.976;37.140;2023-05-07T14:27:24;1.83;;;1.55;;
40609;SDS011;26316;55.976;37.140;2023-05-07T14:29:49;4.43;;;1.85;;
40609;SDS011;26316;55.976;37.140;2023-05-07T14:32:17;1.67;;;1.33;;
40609;SDS011;26316;55.976;37.140;2023-05-07T14:34:44;5.18;;;1.50;;
40609;SDS011;26316;55.976;37.140;2023-05-07T14:37:10;1.60;;;1.23;;
40609;SDS011;26316;55.976;37.140;2023-05-07T14:39:36;3.60;;;1.40;;
40609;SDS011;26316;55.976;37.140;2023-05-07T14:42:02;1.20;;;1.10;;
40609;SDS011;26316;55.976;37.140;2023-05-07T14:44:27;1.92;;;1.17;;
40609;SDS011;26316;55.976;37.140;2023-05-07T14:46:53;1.35;;;1.10;;
40609;SDS011;26316;55.976;37.140;2023-05-07T14:49:19;2.85;;;1.10;;
40609;SDS011;26316;55.976;37.140;2023-05-07T14:51:45;2.15;;;1.30;;
40609;SDS011;26316;55.976;37.140;2023-05-07T14:54:12;1.30;;;0.90;;
40609;SDS011;26316;55.976;37.140;2023-05-07T14:56:39;5.72;;;1.08;;